createdAt,value
2018-07-05T00:00:07.667Z,0.00
2018-07-05T00:01:07.599Z,0.00
2018-07-05T00:02:07.519Z,0.00
2018-07-05T00:03:07.444Z,0.00
2018-07-05T00:04:07.366Z,0.00
2018-07-05T00:05:07.294Z,0.00
2018-07-05T00:06:07.231Z,0.00
2018-07-05T00:07:07.160Z,0.00
2018-07-05T00:08:07.077Z,0.00
2018-07-05T00:09:06.997Z,0.00
2018-07-05T00:10:06.923Z,0.00
2018-07-05T00:11:06.849Z,0.00
2018-07-05T00:12:06.773Z,0.00
2018-07-05T00:13:06.699Z,0.00
2018-07-05T00:14:06.625Z,0.00
2018-07-05T00:15:06.558Z,0.00
2018-07-05T00:16:06.477Z,0.00
2018-07-05T00:17:06.408Z,0.00
2018-07-05T00:18:06.334Z,0.00
2018-07-05T00:19:06.259Z,0.00
2018-07-05T00:20:06.182Z,0.00
2018-07-05T00:21:06.107Z,0.00
2018-07-05T00:22:06.039Z,0.00
2018-07-05T00:23:05.956Z,0.00
2018-07-05T00:24:05.882Z,0.00
2018-07-05T00:25:05.812Z,0.00
2018-07-05T00:26:05.733Z,0.00
2018-07-05T00:27:05.673Z,0.00
2018-07-05T00:28:05.587Z,0.00
2018-07-05T00:29:05.529Z,0.00
2018-07-05T00:30:05.439Z,0.00
2018-07-05T00:31:05.363Z,0.00
2018-07-05T00:32:05.292Z,0.00
2018-07-05T00:33:05.214Z,0.00
2018-07-05T00:34:05.141Z,0.00
2018-07-05T00:35:05.064Z,0.00
2018-07-05T00:36:05.014Z,0.00
2018-07-05T00:37:04.924Z,0.00
2018-07-05T00:38:04.843Z,0.00
2018-07-05T00:39:04.766Z,0.00
2018-07-05T00:40:04.702Z,0.00
2018-07-05T00:41:04.621Z,0.00
2018-07-05T00:42:04.547Z,0.00
2018-07-05T00:43:04.467Z,0.00
2018-07-05T00:44:04.414Z,0.00
2018-07-05T00:45:04.328Z,0.00
2018-07-05T00:46:04.263Z,0.00
2018-07-05T00:47:04.171Z,0.00
2018-07-05T00:48:04.104Z,0.00
2018-07-05T00:49:04.032Z,0.00
2018-07-05T00:50:03.951Z,0.00
2018-07-05T00:51:03.875Z,0.00
2018-07-05T00:52:03.802Z,0.00
2018-07-05T00:53:03.726Z,0.00
2018-07-05T00:54:03.648Z,0.00
2018-07-05T00:55:03.575Z,0.00
2018-07-05T00:56:03.503Z,0.00
2018-07-05T00:57:03.433Z,0.00
2018-07-05T00:58:03.350Z,0.00
2018-07-05T00:59:03.290Z,0.00
2018-07-05T01:00:03.203Z,0.00
2018-07-05T01:01:03.130Z,0.00
2018-07-05T01:02:03.056Z,0.00
2018-07-05T01:03:02.992Z,0.00
2018-07-05T01:04:02.905Z,0.00
2018-07-05T01:05:02.831Z,0.00
2018-07-05T01:06:02.757Z,0.00
2018-07-05T01:07:02.677Z,0.00
2018-07-05T01:08:02.605Z,0.00
2018-07-05T01:09:02.538Z,0.00
2018-07-05T01:10:02.459Z,0.00
2018-07-05T01:11:02.385Z,0.00
2018-07-05T01:12:02.312Z,0.00
2018-07-05T01:13:02.255Z,0.00
2018-07-05T01:14:02.160Z,0.00
2018-07-05T01:15:02.085Z,0.00
2018-07-05T01:16:02.006Z,0.00
2018-07-05T01:17:01.930Z,0.00
2018-07-05T01:18:01.873Z,0.00
2018-07-05T01:19:01.788Z,0.00
2018-07-05T01:20:01.723Z,0.00
2018-07-05T01:21:01.632Z,0.00
2018-07-05T01:22:01.563Z,0.00
2018-07-05T01:23:01.496Z,0.00
2018-07-05T01:25:44.031Z,0.00
2018-07-05T01:26:43.905Z,0.00
2018-07-05T01:28:47.731Z,0.00
2018-07-05T01:29:47.653Z,0.00
2018-07-05T01:31:51.538Z,0.00
2018-07-05T01:32:51.417Z,0.00
2018-07-05T01:34:44.290Z,0.00
2018-07-05T01:35:44.211Z,0.00
2018-07-05T01:37:47.981Z,0.00
2018-07-05T01:38:47.866Z,0.00
2018-07-05T01:39:47.782Z,0.00
2018-07-05T01:40:47.703Z,0.00
2018-07-05T01:41:47.631Z,0.00
2018-07-05T01:42:47.552Z,0.00
2018-07-05T01:43:47.481Z,0.00
2018-07-05T01:44:47.403Z,0.00
2018-07-05T01:45:47.328Z,0.00
2018-07-05T01:46:47.252Z,0.00
2018-07-05T01:49:29.813Z,0.00
2018-07-05T01:50:29.692Z,0.00
2018-07-05T01:52:33.559Z,0.00
2018-07-05T01:53:33.434Z,0.00
2018-07-05T01:55:37.271Z,0.00
2018-07-05T01:56:37.192Z,0.00
2018-07-05T01:58:41.065Z,0.00
2018-07-05T01:59:40.942Z,0.00
2018-07-05T02:00:40.868Z,0.00
2018-07-05T02:01:40.801Z,0.00
2018-07-05T02:02:40.740Z,0.00
2018-07-05T02:03:40.643Z,0.00
2018-07-05T02:04:40.568Z,0.00
2018-07-05T02:05:40.543Z,0.00
2018-07-05T02:06:40.416Z,0.00
2018-07-05T02:07:40.340Z,0.00
2018-07-05T02:08:40.264Z,0.00
2018-07-05T02:09:40.210Z,0.00
2018-07-05T02:10:40.114Z,0.00
2018-07-05T02:11:40.041Z,0.00
2018-07-05T02:12:39.965Z,0.00
2018-07-05T02:13:39.891Z,0.00
2018-07-05T02:14:39.817Z,0.00
2018-07-05T02:15:39.746Z,0.00
2018-07-05T02:16:39.669Z,0.00
2018-07-05T02:17:39.588Z,0.00
2018-07-05T02:18:39.513Z,0.00
2018-07-05T02:19:39.439Z,0.00
2018-07-05T02:20:39.365Z,0.00
2018-07-05T02:21:39.288Z,0.00
2018-07-05T02:22:39.223Z,0.00
2018-07-05T02:23:39.144Z,0.00
2018-07-05T02:24:39.114Z,0.00
2018-07-05T02:25:38.995Z,0.00
2018-07-05T02:26:38.914Z,0.00
2018-07-05T02:27:38.838Z,0.00
2018-07-05T02:28:38.764Z,0.00
2018-07-05T02:29:38.705Z,0.00
2018-07-05T02:30:38.614Z,0.00
2018-07-05T02:31:38.540Z,0.00
2018-07-05T02:32:38.464Z,0.00
2018-07-05T02:33:38.386Z,0.00
2018-07-05T02:34:38.314Z,0.00
2018-07-05T02:35:38.288Z,0.00
2018-07-05T02:36:38.163Z,0.00
2018-07-05T02:37:38.088Z,0.00
2018-07-05T02:38:38.013Z,0.00
2018-07-05T02:39:37.938Z,4.00
2018-07-05T02:40:37.865Z,0.00
2018-07-05T02:41:37.786Z,0.00
2018-07-05T02:42:37.718Z,0.00
2018-07-05T02:43:37.638Z,4.00
2018-07-05T02:44:37.563Z,0.00
2018-07-05T02:45:37.486Z,4.00
2018-07-05T02:46:37.414Z,4.00
2018-07-05T02:47:37.339Z,4.00
2018-07-05T02:48:37.263Z,4.00
2018-07-05T02:49:37.189Z,4.00
2018-07-05T02:50:37.114Z,8.00
2018-07-05T02:51:37.037Z,8.00
2018-07-05T02:52:36.988Z,8.00
2018-07-05T02:53:36.891Z,12.00
2018-07-05T02:54:36.818Z,12.00
2018-07-05T02:55:36.740Z,12.00
2018-07-05T02:56:36.662Z,16.00
2018-07-05T02:57:36.586Z,20.00
2018-07-05T02:58:36.515Z,20.00
2018-07-05T02:59:36.447Z,24.00
2018-07-05T03:00:36.362Z,24.00
2018-07-05T03:01:36.285Z,32.00
2018-07-05T03:02:36.216Z,32.00
2018-07-05T03:03:36.153Z,36.00
2018-07-05T03:04:36.079Z,44.00
2018-07-05T03:05:35.984Z,48.00
2018-07-05T03:06:35.915Z,48.00
2018-07-05T03:07:35.864Z,56.00
2018-07-05T03:08:35.766Z,64.00
2018-07-05T03:09:35.683Z,68.00
2018-07-05T03:10:35.608Z,72.00
2018-07-05T03:11:35.541Z,80.00
2018-07-05T03:12:35.457Z,84.00
2018-07-05T03:13:35.383Z,92.00
2018-07-05T03:14:35.327Z,104.00
2018-07-05T03:15:35.236Z,112.00
2018-07-05T03:16:35.156Z,120.00
2018-07-05T03:17:35.082Z,128.00
2018-07-05T03:18:35.009Z,144.00
2018-07-05T03:19:34.933Z,152.00
2018-07-05T03:20:34.861Z,164.00
2018-07-05T03:21:34.784Z,176.00
2018-07-05T03:22:34.709Z,192.00
2018-07-05T03:23:34.631Z,204.00
2018-07-05T03:24:34.555Z,220.00
2018-07-05T03:25:34.488Z,232.00
2018-07-05T03:26:34.404Z,248.00
2018-07-05T03:27:34.361Z,260.00
2018-07-05T03:28:34.253Z,276.00
2018-07-05T03:29:34.195Z,292.00
2018-07-05T03:30:34.104Z,304.00
2018-07-05T03:31:34.030Z,324.00
2018-07-05T03:32:33.954Z,340.00
2018-07-05T03:33:33.875Z,356.00
2018-07-05T03:34:33.832Z,368.00
2018-07-05T03:35:33.727Z,384.00
2018-07-05T03:36:33.651Z,396.00
2018-07-05T03:37:33.577Z,412.00
2018-07-05T03:38:33.503Z,424.00
2018-07-05T03:39:33.425Z,440.00
2018-07-05T03:40:33.357Z,456.00
2018-07-05T03:41:33.277Z,468.00
2018-07-05T03:42:33.200Z,484.00
2018-07-05T03:43:33.122Z,504.00
2018-07-05T03:44:33.049Z,520.00
2018-07-05T03:45:32.973Z,536.00
2018-07-05T03:46:32.898Z,556.00
2018-07-05T03:47:32.821Z,572.00
2018-07-05T03:48:32.748Z,592.00
2018-07-05T03:49:32.674Z,612.00
2018-07-05T03:50:32.596Z,636.00
2018-07-05T03:51:32.535Z,656.00
2018-07-05T03:52:32.463Z,680.00
2018-07-05T03:53:32.371Z,696.00
2018-07-05T03:54:32.295Z,716.00
2018-07-05T03:55:32.220Z,740.00
2018-07-05T03:56:32.146Z,764.00
2018-07-05T03:57:32.070Z,784.00
2018-07-05T03:58:31.998Z,804.00
2018-07-05T03:59:31.937Z,824.00
2018-07-05T04:00:31.845Z,844.00
2018-07-05T04:01:31.771Z,864.00
2018-07-05T04:02:31.709Z,880.00
2018-07-05T04:03:31.619Z,900.00
2018-07-05T04:04:31.549Z,916.00
2018-07-05T04:05:31.466Z,936.00
2018-07-05T04:06:31.395Z,956.00
2018-07-05T04:07:31.320Z,972.00
2018-07-05T04:08:31.243Z,992.00
2018-07-05T04:09:31.167Z,1016.00
2018-07-05T04:10:31.091Z,1036.00
2018-07-05T04:11:31.021Z,1056.00
2018-07-05T04:12:30.942Z,1072.00
2018-07-05T04:13:30.872Z,1092.00
2018-07-05T04:14:30.793Z,1108.00
2018-07-05T04:15:30.718Z,1124.00
2018-07-05T04:16:30.642Z,1144.00
2018-07-05T04:17:30.568Z,1160.00
2018-07-05T04:18:30.491Z,1184.00
2018-07-05T04:19:30.420Z,1204.00
2018-07-05T04:20:30.344Z,1220.00
2018-07-05T04:21:30.266Z,1240.00
2018-07-05T04:22:30.193Z,1264.00
2018-07-05T04:23:30.117Z,1284.00
2018-07-05T04:24:30.042Z,1308.00
2018-07-05T04:25:29.965Z,1336.00
2018-07-05T04:26:29.891Z,1368.00
2018-07-05T04:27:29.816Z,1400.00
2018-07-05T04:28:29.743Z,1428.00
2018-07-05T04:29:29.666Z,1452.00
2018-07-05T04:30:29.593Z,1480.00
2018-07-05T04:31:29.516Z,1500.00
2018-07-05T04:32:29.451Z,1520.00
2018-07-05T04:33:29.367Z,1556.00
2018-07-05T04:34:29.292Z,1608.00
2018-07-05T04:35:29.233Z,1668.00
2018-07-05T04:36:29.144Z,1720.00
2018-07-05T04:37:29.068Z,1776.00
2018-07-05T04:38:28.992Z,1812.00
2018-07-05T04:39:28.923Z,1836.00
2018-07-05T04:40:28.846Z,1848.00
2018-07-05T04:41:28.766Z,1860.00
2018-07-05T04:42:28.700Z,1852.00
2018-07-05T04:43:28.621Z,1816.00
2018-07-05T04:44:28.544Z,1784.00
2018-07-05T04:45:28.468Z,1756.00
2018-07-05T04:46:28.396Z,1752.00
2018-07-05T04:47:28.322Z,1760.00
2018-07-05T04:48:28.246Z,1772.00
2018-07-05T04:49:28.184Z,1792.00
2018-07-05T04:50:28.096Z,1816.00
2018-07-05T04:51:28.023Z,1836.00
2018-07-05T04:52:27.950Z,1856.00
2018-07-05T04:53:27.875Z,1876.00
2018-07-05T04:54:27.803Z,1900.00
2018-07-05T04:55:27.734Z,1924.00
2018-07-05T04:56:27.653Z,1948.00
2018-07-05T04:57:27.578Z,1976.00
2018-07-05T04:58:27.502Z,2000.00
2018-07-05T04:59:27.429Z,2024.00
2018-07-05T05:00:27.354Z,2044.00
2018-07-05T05:01:27.281Z,2068.00
2018-07-05T05:02:27.231Z,2092.00
2018-07-05T05:03:27.142Z,2112.00
2018-07-05T05:04:27.055Z,2140.00
2018-07-05T05:05:26.980Z,2164.00
2018-07-05T05:06:26.911Z,2184.00
2018-07-05T05:07:26.835Z,2204.00
2018-07-05T05:08:26.772Z,2224.00
2018-07-05T05:09:26.687Z,2248.00
2018-07-05T05:10:26.613Z,2272.00
2018-07-05T05:11:26.536Z,2296.00
2018-07-05T05:12:26.476Z,2312.00
2018-07-05T05:13:26.391Z,2340.00
2018-07-05T05:14:26.316Z,2360.00
2018-07-05T05:15:26.240Z,2380.00
2018-07-05T05:16:26.168Z,2404.00
2018-07-05T05:17:26.094Z,2420.00
2018-07-05T05:18:26.028Z,2420.00
2018-07-05T05:19:25.947Z,2448.00
2018-07-05T05:20:25.872Z,2460.00
2018-07-05T05:21:25.797Z,2488.00
2018-07-05T05:22:25.728Z,2496.00
2018-07-05T05:23:25.653Z,2520.00
2018-07-05T05:24:25.577Z,2528.00
2018-07-05T05:25:25.505Z,2520.00
2018-07-05T05:26:25.439Z,2528.00
2018-07-05T05:27:25.357Z,2532.00
2018-07-05T05:28:25.286Z,2484.00
2018-07-05T05:29:25.207Z,2500.00
2018-07-05T05:30:25.144Z,2464.00
2018-07-05T05:31:25.070Z,2536.00
2018-07-05T05:32:24.987Z,2440.00
2018-07-05T05:33:24.912Z,2536.00
2018-07-05T05:34:24.839Z,2548.00
2018-07-05T05:35:24.767Z,2572.00
2018-07-05T05:36:24.707Z,2664.00
2018-07-05T05:37:24.619Z,2636.00
2018-07-05T05:38:24.546Z,2708.00
2018-07-05T05:39:24.473Z,2716.00
2018-07-05T05:40:24.419Z,2720.00
2018-07-05T05:41:24.334Z,2748.00
2018-07-05T05:42:24.252Z,2772.00
2018-07-05T05:43:24.179Z,2784.00
2018-07-05T05:44:24.105Z,2760.00
2018-07-05T05:45:24.032Z,2736.00
2018-07-05T05:46:23.959Z,2740.00
2018-07-05T05:47:23.886Z,2736.00
2018-07-05T05:48:23.812Z,2728.00
2018-07-05T05:49:23.742Z,2704.00
2018-07-05T05:50:23.668Z,2680.00
2018-07-05T05:51:23.595Z,2700.00
2018-07-05T05:52:23.520Z,2692.00
2018-07-05T05:53:23.490Z,2664.00
2018-07-05T05:54:23.383Z,2660.00
2018-07-05T05:55:23.300Z,2648.00
2018-07-05T05:56:23.230Z,2636.00
2018-07-05T05:57:23.155Z,2604.00
2018-07-05T05:58:23.080Z,2584.00
2018-07-05T05:59:23.008Z,2636.00
2018-07-05T06:00:22.936Z,2668.00
2018-07-05T06:01:22.874Z,2660.00
2018-07-05T06:02:22.789Z,2656.00
2018-07-05T06:03:22.737Z,2660.00
2018-07-05T06:04:22.641Z,2620.00
2018-07-05T06:05:22.575Z,2540.00
2018-07-05T06:06:22.495Z,2632.00
2018-07-05T06:07:22.422Z,2708.00
2018-07-05T06:08:22.357Z,2752.00
2018-07-05T06:09:22.279Z,2844.00
2018-07-05T06:10:22.206Z,2980.00
2018-07-05T06:11:22.131Z,3040.00
2018-07-05T06:12:22.076Z,3096.00
2018-07-05T06:13:21.986Z,3140.00
2018-07-05T06:14:21.915Z,3132.00
2018-07-05T06:15:21.847Z,3128.00
2018-07-05T06:16:21.770Z,3092.00
2018-07-05T06:17:21.695Z,3136.00
2018-07-05T06:18:21.621Z,3136.00
2018-07-05T06:19:21.552Z,3104.00
2018-07-05T06:20:21.487Z,3096.00
2018-07-05T06:21:21.403Z,2744.00
2018-07-05T06:22:21.334Z,2724.00
2018-07-05T06:23:21.260Z,3032.00
2018-07-05T06:24:21.187Z,3008.00
2018-07-05T06:25:21.114Z,3008.00
2018-07-05T06:26:21.053Z,3016.00
2018-07-05T06:27:20.968Z,2996.00
2018-07-05T06:28:20.900Z,2960.00
2018-07-05T06:29:20.835Z,2996.00
2018-07-05T06:30:20.773Z,3108.00
2018-07-05T06:31:20.693Z,3224.00
2018-07-05T06:32:20.606Z,3304.00
2018-07-05T06:33:20.538Z,3352.00
2018-07-05T06:34:20.468Z,3392.00
2018-07-05T06:35:20.388Z,3484.00
2018-07-05T06:36:20.321Z,3592.00
2018-07-05T06:37:20.245Z,3492.00
2018-07-05T06:38:20.173Z,3316.00
2018-07-05T06:39:20.102Z,3640.00
2018-07-05T06:40:20.030Z,3660.00
2018-07-05T06:41:19.958Z,3588.00
2018-07-05T06:42:19.884Z,3480.00
2018-07-05T06:43:19.813Z,3568.00
2018-07-05T06:44:19.741Z,3396.00
2018-07-05T06:45:19.673Z,3276.00
2018-07-05T06:46:19.597Z,3288.00
2018-07-05T06:47:19.567Z,3320.00
2018-07-05T06:48:19.451Z,3376.00
2018-07-05T06:49:19.412Z,3536.00
2018-07-05T06:50:19.311Z,3576.00
2018-07-05T06:51:19.238Z,3736.00
2018-07-05T06:52:19.166Z,3760.00
2018-07-05T06:53:19.090Z,3864.00
2018-07-05T06:54:19.018Z,3884.00
2018-07-05T06:55:18.948Z,3884.00
2018-07-05T06:56:18.876Z,3812.00
2018-07-05T06:57:18.803Z,3788.00
2018-07-05T06:58:18.733Z,3724.00
2018-07-05T06:59:18.696Z,3656.00
2018-07-05T07:00:18.588Z,3604.00
2018-07-05T07:01:18.519Z,3652.00
2018-07-05T07:02:18.448Z,3704.00
2018-07-05T07:03:18.394Z,3684.00
2018-07-05T07:04:18.302Z,3700.00
2018-07-05T07:05:18.227Z,3844.00
2018-07-05T07:06:18.159Z,3756.00
2018-07-05T07:07:18.085Z,3800.00
2018-07-05T07:08:18.014Z,3824.00
2018-07-05T07:09:17.960Z,3904.00
2018-07-05T07:10:17.869Z,3876.00
2018-07-05T07:11:17.799Z,3860.00
2018-07-05T07:12:17.729Z,3832.00
2018-07-05T07:13:17.672Z,3820.00
2018-07-05T07:14:17.581Z,3852.00
2018-07-05T07:15:17.513Z,3872.00
2018-07-05T07:16:17.441Z,4036.00
2018-07-05T07:17:17.368Z,4068.00
2018-07-05T07:18:17.310Z,4100.00
2018-07-05T07:19:17.225Z,4100.00
2018-07-05T07:20:17.153Z,4104.00
2018-07-05T07:21:17.082Z,4108.00
2018-07-05T07:22:17.019Z,4060.00
2018-07-05T07:23:16.940Z,4120.00
2018-07-05T07:24:16.878Z,4128.00
2018-07-05T07:25:16.816Z,4108.00
2018-07-05T07:26:16.726Z,4160.00
2018-07-05T07:27:16.660Z,4128.00
2018-07-05T07:28:16.589Z,4080.00
2018-07-05T07:29:16.512Z,4108.00
2018-07-05T07:30:16.447Z,3992.00
2018-07-05T07:31:16.384Z,3956.00
2018-07-05T07:32:16.301Z,4024.00
2018-07-05T07:33:16.229Z,4144.00
2018-07-05T07:34:16.167Z,4188.00
2018-07-05T07:35:16.097Z,4096.00
2018-07-05T07:36:16.016Z,4116.00
2018-07-05T07:37:15.942Z,4108.00
2018-07-05T07:38:15.888Z,4000.00
2018-07-05T07:39:15.801Z,3960.00
2018-07-05T07:40:15.730Z,4160.00
2018-07-05T07:41:15.657Z,4164.00
2018-07-05T07:42:15.590Z,4252.00
2018-07-05T07:43:15.520Z,4288.00
2018-07-05T07:44:15.446Z,4288.00
2018-07-05T07:45:15.379Z,4208.00
2018-07-05T07:46:15.304Z,4140.00
2018-07-05T07:47:15.234Z,4052.00
2018-07-05T07:48:15.165Z,3888.00
2018-07-05T07:49:15.089Z,3960.00
2018-07-05T07:50:15.024Z,3972.00
2018-07-05T07:51:15.003Z,3740.00
2018-07-05T07:52:14.878Z,4044.00
2018-07-05T07:53:14.810Z,3844.00
2018-07-05T07:54:14.738Z,3784.00
2018-07-05T07:55:14.687Z,3776.00
2018-07-05T07:56:14.597Z,4044.00
2018-07-05T07:57:14.527Z,4036.00
2018-07-05T07:58:14.522Z,4084.00
2018-07-05T07:59:14.385Z,4116.00
2018-07-05T08:00:14.315Z,4140.00
2018-07-05T08:01:14.245Z,4088.00
2018-07-05T08:02:14.171Z,3992.00
2018-07-05T08:03:14.126Z,3948.00
2018-07-05T08:04:14.032Z,3908.00
2018-07-05T08:05:13.960Z,3860.00
2018-07-05T08:06:13.893Z,3824.00
2018-07-05T08:07:13.823Z,3776.00
2018-07-05T08:08:13.776Z,3760.00
2018-07-05T08:09:13.677Z,3740.00
2018-07-05T08:10:13.611Z,3692.00
2018-07-05T08:11:13.538Z,3560.00
2018-07-05T08:12:13.471Z,3644.00
2018-07-05T08:13:13.396Z,3412.00
2018-07-05T08:14:13.327Z,3656.00
2018-07-05T08:15:13.260Z,3812.00
2018-07-05T08:16:13.194Z,3960.00
2018-07-05T08:17:13.176Z,4004.00
2018-07-05T08:18:13.044Z,4008.00
2018-07-05T08:19:12.985Z,3992.00
2018-07-05T08:20:12.919Z,3968.00
2018-07-05T08:21:12.833Z,3944.00
2018-07-05T08:22:12.766Z,3928.00
2018-07-05T08:23:12.694Z,3940.00
2018-07-05T08:24:12.637Z,3888.00
2018-07-05T08:25:12.553Z,3840.00
2018-07-05T08:26:12.508Z,3860.00
2018-07-05T08:27:12.416Z,3864.00
2018-07-05T08:28:12.343Z,3756.00
2018-07-05T08:29:12.273Z,3752.00
2018-07-05T08:30:12.202Z,3732.00
2018-07-05T08:31:12.252Z,3700.00
2018-07-05T08:32:12.079Z,3792.00
2018-07-05T08:33:11.991Z,3780.00
2018-07-05T08:34:11.920Z,3764.00
2018-07-05T08:35:11.849Z,3776.00
2018-07-05T08:36:11.796Z,3804.00
2018-07-05T08:37:11.725Z,3852.00
2018-07-05T08:38:11.642Z,3932.00
2018-07-05T08:39:11.571Z,3968.00
2018-07-05T08:40:11.540Z,3964.00
2018-07-05T08:41:11.428Z,3900.00
2018-07-05T08:42:11.360Z,3912.00
2018-07-05T08:43:11.294Z,3884.00
2018-07-05T08:44:11.220Z,4000.00
2018-07-05T08:45:11.150Z,4140.00
2018-07-05T08:46:11.079Z,4160.00
2018-07-05T08:47:11.026Z,4152.00
2018-07-05T08:48:10.947Z,4180.00
2018-07-05T08:49:10.886Z,4220.00
2018-07-05T08:50:10.803Z,4144.00
2018-07-05T08:51:10.772Z,4048.00
2018-07-05T08:52:10.661Z,3908.00
2018-07-05T08:53:10.590Z,3864.00
2018-07-05T08:54:10.521Z,3864.00
2018-07-05T08:55:10.464Z,3812.00
2018-07-05T08:56:10.387Z,3880.00
2018-07-05T08:57:10.323Z,3860.00
2018-07-05T08:58:10.245Z,3840.00
2018-07-05T08:59:10.174Z,4016.00
2018-07-05T09:00:10.105Z,4132.00
2018-07-05T09:01:10.034Z,4188.00
2018-07-05T09:02:09.964Z,4184.00
2018-07-05T09:03:09.899Z,4208.00
2018-07-05T09:04:09.823Z,4304.00
2018-07-05T09:05:09.782Z,4380.00
2018-07-05T09:06:09.686Z,4416.00
2018-07-05T09:07:09.613Z,4456.00
2018-07-05T09:08:09.547Z,4504.00
2018-07-05T09:09:09.475Z,4544.00
2018-07-05T09:10:09.404Z,4564.00
2018-07-05T09:11:09.355Z,4608.00
2018-07-05T09:12:09.276Z,4648.00
2018-07-05T09:13:09.201Z,4684.00
2018-07-05T09:14:09.127Z,4728.00
2018-07-05T09:15:09.061Z,4756.00
2018-07-05T09:16:08.990Z,4792.00
2018-07-05T09:17:08.920Z,4856.00
2018-07-05T09:18:08.922Z,4936.00
2018-07-05T09:19:08.782Z,5016.00
2018-07-05T09:20:08.727Z,5048.00
2018-07-05T09:21:08.642Z,5052.00
2018-07-05T09:22:08.574Z,5076.00
2018-07-05T09:23:08.531Z,5052.00
2018-07-05T09:24:09.202Z,5004.00
2018-07-05T09:25:08.398Z,5120.00
2018-07-05T09:26:08.341Z,5136.00
2018-07-05T09:27:08.284Z,5132.00
2018-07-05T09:28:08.218Z,5060.00
2018-07-05T09:29:08.116Z,4980.00
2018-07-05T09:30:08.070Z,4812.00
2018-07-05T09:31:08.062Z,4760.00
2018-07-05T09:32:07.938Z,4944.00
2018-07-05T09:33:07.875Z,4976.00
2018-07-05T09:34:07.807Z,5004.00
2018-07-05T09:35:07.741Z,4940.00
2018-07-05T09:36:07.693Z,4896.00
2018-07-05T09:37:07.639Z,4828.00
2018-07-05T09:38:07.480Z,4776.00
2018-07-05T09:39:07.450Z,4656.00
2018-07-05T09:40:07.414Z,4652.00
2018-07-05T09:41:07.293Z,4844.00
2018-07-05T09:42:07.258Z,4756.00
2018-07-05T09:43:07.177Z,4936.00
2018-07-05T09:44:07.116Z,5020.00
2018-07-05T09:45:07.019Z,5132.00
2018-07-05T09:46:06.927Z,5196.00
2018-07-05T09:47:06.958Z,5252.00
2018-07-05T09:48:06.792Z,5304.00
2018-07-05T09:49:06.775Z,5336.00
2018-07-05T09:50:07.280Z,5388.00
2018-07-05T09:51:06.627Z,5472.00
2018-07-05T09:52:06.578Z,5524.00
2018-07-05T09:53:06.500Z,5608.00
2018-07-05T09:54:06.439Z,5716.00
2018-07-05T09:55:06.347Z,5764.00
2018-07-05T09:56:07.268Z,5772.00
2018-07-05T09:57:06.230Z,5876.00
2018-07-05T09:58:06.150Z,6040.00
2018-07-05T09:59:06.118Z,6160.00
2018-07-05T10:00:06.037Z,6116.00
2018-07-05T10:01:05.898Z,6164.00
2018-07-05T10:02:05.899Z,6444.00
2018-07-05T10:03:05.827Z,6564.00
2018-07-05T10:04:05.753Z,6656.00
2018-07-05T10:05:05.686Z,6660.00
2018-07-05T10:06:05.552Z,6912.00
2018-07-05T10:07:05.539Z,7068.00
2018-07-05T10:08:05.470Z,7148.00
2018-07-05T10:09:05.402Z,7148.00
2018-07-05T10:10:05.344Z,7296.00
2018-07-05T10:11:05.265Z,7324.00
2018-07-05T10:12:05.204Z,7276.00
2018-07-05T10:13:05.249Z,7348.00
2018-07-05T10:14:05.064Z,7372.00
2018-07-05T10:15:04.994Z,7472.00
2018-07-05T10:16:05.779Z,7440.00
2018-07-05T10:17:04.812Z,7312.00
2018-07-05T10:18:04.807Z,6984.00
2018-07-05T10:19:04.691Z,6936.00
2018-07-05T10:20:04.656Z,6992.00
2018-07-05T10:21:04.588Z,7100.00
2018-07-05T10:22:04.521Z,7224.00
2018-07-05T10:23:04.431Z,7420.00
2018-07-05T10:24:04.327Z,7500.00
2018-07-05T10:25:06.305Z,7560.00
2018-07-05T10:26:04.247Z,7504.00
2018-07-05T10:27:04.268Z,7364.00
2018-07-05T10:28:04.101Z,7412.00
2018-07-05T10:29:04.038Z,7548.00
2018-07-05T10:30:03.972Z,7676.00
2018-07-05T10:31:03.918Z,7856.00
2018-07-05T10:32:03.839Z,8064.00
2018-07-05T10:33:03.772Z,8168.00
2018-07-05T10:34:03.647Z,8300.00
2018-07-05T10:35:03.581Z,8376.00
2018-07-05T10:36:03.509Z,8408.00
2018-07-05T10:37:03.445Z,8320.00
2018-07-05T10:38:03.423Z,8344.00
2018-07-05T10:39:03.307Z,8320.00
2018-07-05T10:40:03.247Z,8544.00
2018-07-05T10:41:03.172Z,8596.00
2018-07-05T10:42:03.112Z,8620.00
2018-07-05T10:43:03.038Z,8740.00
2018-07-05T10:44:02.987Z,9036.00
2018-07-05T10:45:02.902Z,9188.00
2018-07-05T10:46:02.910Z,9208.00
2018-07-05T10:47:02.767Z,9264.00
2018-07-05T10:48:02.704Z,9396.00
2018-07-05T10:49:02.647Z,9568.00
2018-07-05T10:50:02.570Z,9760.00
2018-07-05T10:51:02.501Z,9836.00
2018-07-05T10:52:02.432Z,9816.00
2018-07-05T10:53:02.378Z,9744.00
2018-07-05T10:54:02.300Z,9548.00
2018-07-05T10:55:02.241Z,9232.00
2018-07-05T10:56:02.177Z,9116.00
2018-07-05T10:57:02.098Z,8944.00
2018-07-05T10:58:02.032Z,9044.00
2018-07-05T10:59:01.965Z,9356.00
2018-07-05T11:00:01.900Z,9244.00
2018-07-05T11:01:01.835Z,9204.00
2018-07-05T11:02:01.767Z,9152.00
2018-07-05T11:03:01.748Z,9528.00
2018-07-05T11:04:01.631Z,9576.00
2018-07-05T11:05:01.628Z,10004.00
2018-07-05T11:06:01.498Z,10316.00
2018-07-05T11:07:01.432Z,10440.00
2018-07-05T11:08:01.368Z,10768.00
2018-07-05T11:09:01.297Z,11212.00
2018-07-05T11:10:01.254Z,11704.00
2018-07-05T11:11:01.169Z,11828.00
2018-07-05T11:12:01.100Z,11648.00
2018-07-05T11:13:01.044Z,11348.00
2018-07-05T11:14:00.969Z,11124.00
2018-07-05T11:15:00.923Z,10808.00
2018-07-05T11:16:00.835Z,10552.00
2018-07-05T11:17:00.782Z,10368.00
2018-07-05T11:18:00.703Z,10304.00
2018-07-05T11:19:00.638Z,10240.00
2018-07-05T11:20:00.573Z,10164.00
2018-07-05T11:21:00.543Z,10112.00
2018-07-05T11:22:00.437Z,10336.00
2018-07-05T11:23:00.435Z,10356.00
2018-07-05T11:24:00.305Z,10412.00
2018-07-05T11:25:00.242Z,10492.00
2018-07-05T11:26:00.174Z,10588.00
2018-07-05T11:27:00.108Z,10752.00
2018-07-05T11:28:00.056Z,11020.00
2018-07-05T11:29:00.029Z,11280.00
2018-07-05T11:29:59.963Z,11300.00
2018-07-05T11:30:59.857Z,11292.00
2018-07-05T11:31:59.778Z,11112.00
2018-07-05T11:32:59.711Z,11124.00
2018-07-05T11:33:59.656Z,11052.00
2018-07-05T11:34:59.644Z,11012.00
2018-07-05T11:35:59.515Z,10948.00
2018-07-05T11:36:59.448Z,10868.00
2018-07-05T11:37:59.378Z,10788.00
2018-07-05T11:38:59.313Z,10788.00
2018-07-05T11:39:59.268Z,10840.00
2018-07-05T11:40:59.180Z,10776.00
2018-07-05T11:41:59.116Z,10692.00
2018-07-05T11:42:59.054Z,10732.00
2018-07-05T11:43:59.006Z,10848.00
2018-07-05T11:44:58.930Z,10932.00
2018-07-05T11:45:58.854Z,10884.00
2018-07-05T11:46:58.787Z,10924.00
2018-07-05T11:47:58.780Z,10916.00
2018-07-05T11:48:58.668Z,10892.00
2018-07-05T11:49:58.586Z,10884.00
2018-07-05T11:50:58.523Z,10936.00
2018-07-05T11:51:58.454Z,10984.00
2018-07-05T11:52:58.436Z,11092.00
2018-07-05T11:53:58.334Z,11100.00
2018-07-05T11:54:58.257Z,10964.00
2018-07-05T11:55:58.211Z,10976.00
2018-07-05T11:56:58.123Z,11004.00
2018-07-05T11:57:58.083Z,11040.00
2018-07-05T11:58:58.036Z,11012.00
2018-07-05T11:59:57.925Z,10960.00
2018-07-05T12:00:57.858Z,10984.00
2018-07-05T12:01:57.842Z,10980.00
2018-07-05T12:02:57.747Z,10988.00
2018-07-05T12:03:57.666Z,11000.00
2018-07-05T12:04:57.592Z,11048.00
2018-07-05T12:05:57.551Z,11096.00
2018-07-05T12:06:57.464Z,11176.00
2018-07-05T12:07:57.396Z,11268.00
2018-07-05T12:08:57.392Z,11380.00
2018-07-05T12:09:57.264Z,11488.00
2018-07-05T12:10:57.219Z,11656.00
2018-07-05T12:11:57.133Z,11796.00
2018-07-05T12:12:57.066Z,12064.00
2018-07-05T12:13:57.000Z,12320.00
2018-07-05T12:14:56.934Z,12552.00
2018-07-05T12:15:56.884Z,12852.00
2018-07-05T12:16:56.859Z,13060.00
2018-07-05T12:17:56.808Z,13340.00
2018-07-05T12:18:56.668Z,13604.00
2018-07-05T12:19:56.605Z,13952.00
2018-07-05T12:20:56.538Z,14344.00
2018-07-05T12:21:56.471Z,14816.00
2018-07-05T12:22:56.431Z,14996.00
2018-07-05T12:23:56.348Z,15008.00
2018-07-05T12:24:56.314Z,14928.00
2018-07-05T12:25:56.209Z,14864.00
2018-07-05T12:26:56.141Z,14868.00
2018-07-05T12:27:56.100Z,14924.00
2018-07-05T12:28:56.078Z,14956.00
2018-07-05T12:29:55.956Z,15264.00